Time;durP1;ratioP1;P1;durP2;ratioP2;P2;SDS_P1;SDS_P2;PMS_P1;PMS_P2;Temp;Humidity;BMP_temperature;BMP_pressure;BME280_temperature;BME280_humidity;BME280_pressure;Samples;Min_cycle;Max_cycle;Signal;HPM_P1;HPM_P2
2022/09/14 04:16:08;;;;;;;28.58;11.65;;;;;;;17.63;100.00;99178.78;5643133;23;20167;-73
2022/09/14 04:18:33;;;;;;;24.83;11.50;;;;;;;17.62;100.00;99190.63;5013045;28;20061;-73
2022/09/14 04:21:02;;;;;;;26.85;11.73;;;;;;;17.59;100.00;99160.66;5014147;28;20062;-73
2022/09/14 04:23:27;;;;;;;26.85;12.73;;;;;;;17.69;100.00;99181.56;5014417;28;20117;-73
2022/09/14 04:25:53;;;;;;;24.35;12.43;;;;;;;17.69;100.00;99185.06;5008154;28;20600;-73
2022/09/14 04:28:19;;;;;;;23.75;12.85;;;;;;;17.68;100.00;99180.75;4994827;28;20041;-73
2022/09/14 04:30:57;;;;;;;24.08;11.95;;;;;;;17.66;100.00;99180.16;4994760;28;20049;-72
2022/09/14 04:33:23;;;;;;;;;;;;;;;17.67;100.00;99195.28;4993936;28;20501;-70
2022/09/14 04:36:00;;;;;;;29.48;11.23;;;;;;;17.62;100.00;99197.88;4994466;28;19914;-72
2022/09/14 04:38:27;;;;;;;21.98;11.70;;;;;;;17.62;100.00;99195.19;4994778;28;20486;-71
2022/09/14 04:40:52;;;;;;;33.42;13.43;;;;;;;17.63;100.00;99186.88;4994108;28;20409;-72
2022/09/14 04:43:18;;;;;;;27.67;12.13;;;;;;;17.62;100.00;99187.13;4994378;28;20045;-72
2022/09/14 04:45:43;;;;;;;31.45;12.77;;;;;;;17.61;100.00;99169.34;4994356;28;20061;-72
2022/09/14 04:48:08;;;;;;;24.73;12.20;;;;;;;17.61;100.00;99186.31;4994266;28;20433;-72
2022/09/14 04:50:34;;;;;;;30.63;13.15;;;;;;;17.61;100.00;99188.19;4994037;28;20034;-71
2022/09/14 04:53:00;;;;;;;24.25;12.23;;;;;;;17.61;100.00;99191.69;4994227;28;20041;-73
2022/09/14 04:55:26;;;;;;;26.17;12.20;;;;;;;17.62;100.00;99189.81;4994124;28;20038;-72
2022/09/14 04:57:52;;;;;;;26.77;13.52;;;;;;;17.64;100.00;99196.56;4994021;28;20350;-73
2022/09/14 05:00:17;;;;;;;25.35;12.38;;;;;;;17.69;100.00;99205.81;4993871;28;20046;-73
2022/09/14 05:02:43;;;;;;;28.15;14.18;;;;;;;17.72;100.00;99199.94;4994095;28;20126;-72
2022/09/14 05:05:08;;;;;;;22.75;11.88;;;;;;;17.73;100.00;99193.50;4994053;28;20041;-72
2022/09/14 05:07:34;;;;;;;24.70;12.32;;;;;;;17.76;100.00;99206.50;4994024;28;20038;-72
2022/09/14 05:09:59;;;;;;;24.02;12.30;;;;;;;17.74;100.00;99216.69;4993731;28;20539;-69
2022/09/14 05:12:24;;;;;;;22.73;11.43;;;;;;;17.77;100.00;99208.13;4992843;28;20486;-70
2022/09/14 05:14:50;;;;;;;31.38;14.27;;;;;;;17.79;100.00;99195.22;4993865;28;20089;-71
2022/09/14 05:17:16;;;;;;;24.52;12.02;;;;;;;17.78;100.00;99198.97;4993551;28;20509;-70
2022/09/14 05:19:41;;;;;;;29.48;13.52;;;;;;;17.77;100.00;99197.34;4993696;28;20460;-71
2022/09/14 05:22:06;;;;;;;29.15;13.82;;;;;;;17.73;100.00;99201.56;4993733;28;20057;-64
2022/09/14 05:24:32;;;;;;;27.17;13.82;;;;;;;17.75;100.00;99194.09;4994466;28;20045;-64
2022/09/14 05:26:57;;;;;;;25.48;11.75;;;;;;;17.71;100.00;99204.53;4994348;28;20106;-64
2022/09/14 05:29:26;;;;;;;26.33;11.82;;;;;;;17.78;100.00;99215.13;4993998;28;20401;-65
2022/09/14 05:31:51;;;;;;;31.27;13.40;;;;;;;17.74;100.00;99203.22;4995649;28;20153;-64
2022/09/14 05:34:17;;;;;;;27.00;13.95;;;;;;;17.75;100.00;99183.31;4994595;28;20066;-64
2022/09/14 05:36:42;;;;;;;28.27;13.35;;;;;;;17.77;100.00;99191.97;4994565;28;20038;-64
2022/09/14 05:39:08;;;;;;;26.38;13.15;;;;;;;17.74;100.00;99168.22;4994098;28;20030;-65
2022/09/14 05:41:34;;;;;;;23.17;12.50;;;;;;;17.80;100.00;99164.53;4994043;28;20038;-64
2022/09/14 05:44:00;;;;;;;24.73;11.38;;;;;;;17.81;100.00;99164.28;4994150;28;20576;-65
2022/09/14 05:46:25;;;;;;;23.02;11.38;;;;;;;17.81;100.00;99171.56;4994703;28;20044;-64
2022/09/14 05:48:50;;;;;;;22.02;11.52;;;;;;;17.75;100.00;99180.63;4995484;28;20046;-65
2022/09/14 05:51:18;;;;;;;24.65;12.40;;;;;;;17.83;100.00;99174.81;4995316;28;20034;-65
2022/09/14 05:53:51;;;;;;;26.35;12.43;;;;;;;17.85;100.00;99173.50;4995036;28;20378;-64
2022/09/14 05:56:18;;;;;;;25.90;12.45;;;;;;;17.86;100.00;99177.00;4995952;28;20042;-65
2022/09/14 05:58:44;;;;;;;19.85;10.50;;;;;;;17.82;100.00;99183.97;4995311;28;20041;-65
2022/09/14 06:01:11;;;;;;;19.15;10.38;;;;;;;17.89;100.00;99173.84;4995039;28;20042;-65
2022/09/14 06:03:37;;;;;;;20.58;11.15;;;;;;;17.88;100.00;99177.59;4992811;28;20060;-64
2022/09/14 06:06:04;;;;;;;22.85;11.70;;;;;;;17.89;100.00;99190.00;4993660;28;20030;-64
2022/09/14 06:08:30;;;;;;;25.92;12.52;;;;;;;17.90;100.00;99191.63;4993754;28;20030;-65
2022/09/14 06:10:56;;;;;;;29.23;12.80;;;;;;;17.88;100.00;99194.56;4991689;28;20499;-64
2022/09/14 06:13:24;;;;;;;23.42;11.90;;;;;;;17.90;100.00;99180.84;4993178;28;20452;-64
2022/09/14 06:15:49;;;;;;;23.05;11.07;;;;;;;17.96;100.00;99192.53;4993351;28;20489;-64
2022/09/14 06:18:14;;;;;;;25.55;11.88;;;;;;;17.97;100.00;99189.56;4992359;28;20045;-65
2022/09/14 06:20:48;;;;;;;24.05;11.52;;;;;;;17.99;100.00;99187.44;4992658;28;20038;-65
2022/09/14 06:23:14;;;;;;;23.42;11.95;;;;;;;17.99;100.00;99195.53;4993041;28;20058;-65
2022/09/14 06:25:39;;;;;;;29.38;12.02;;;;;;;17.95;100.00;99191.72;4992993;28;20081;-64
2022/09/14 06:28:04;;;;;;;27.65;12.27;;;;;;;18.00;100.00;99189.09;4993905;28;20022;-65
2022/09/14 06:30:30;;;;;;;26.70;12.27;;;;;;;18.02;100.00;99188.84;4994233;28;20046;-65
2022/09/14 06:32:55;;;;;;;25.98;12.48;;;;;;;18.03;100.00;99185.88;4994826;28;20042;-64
2022/09/14 06:35:21;;;;;;;26.20;12.90;;;;;;;18.04;100.00;99181.31;4994763;28;20078;-65
2022/09/14 06:37:46;;;;;;;26.92;12.30;;;;;;;18.08;100.00;99185.16;4993756;28;20042;-64
2022/09/14 06:40:11;;;;;;;23.98;11.93;;;;;;;18.06;100.00;99181.88;4993224;28;20126;-63
2022/09/14 06:42:37;;;;;;;25.90;12.20;;;;;;;18.06;100.00;99182.72;4993540;28;20511;-64
2022/09/14 06:45:03;;;;;;;29.23;13.02;;;;;;;18.07;100.00;99183.53;4993762;28;20061;-64
2022/09/14 06:47:32;;;;;;;27.25;12.45;;;;;;;18.14;100.00;99182.28;4994173;28;20042;-64
2022/09/14 06:49:57;;;;;;;27.65;13.30;;;;;;;18.17;100.00;99172.88;4993493;28;20042;-65
2022/09/14 06:52:23;;;;;;;29.52;13.73;;;;;;;18.21;100.00;99175.91;4992152;28;20408;-65
2022/09/14 06:54:48;;;;;;;27.65;13.30;;;;;;;18.19;100.00;99181.53;4994373;28;20038;-65
2022/09/14 06:57:14;;;;;;;27.90;13.27;;;;;;;18.22;100.00;99180.22;4994289;28;20424;-65
2022/09/14 06:59:40;;;;;;;26.75;13.63;;;;;;;18.27;100.00;99188.38;4992858;28;20050;-65
2022/09/14 07:02:05;;;;;;;26.77;12.98;;;;;;;18.25;100.00;99185.09;4993374;28;20038;-65
2022/09/14 07:04:30;;;;;;;30.08;13.43;;;;;;;18.30;100.00;99174.41;4992348;28;20128;-65
2022/09/14 07:06:56;;;;;;;28.65;12.90;;;;;;;18.30;100.00;99175.22;4993568;28;20038;-65
2022/09/14 07:09:21;;;;;;;35.22;13.77;;;;;;;18.33;100.00;99173.91;4993905;28;20034;-65
2022/09/14 07:11:48;;;;;;;31.25;12.60;;;;;;;18.35;100.00;99171.78;4992985;28;20034;-62
2022/09/14 07:14:13;;;;;;;30.77;12.95;;;;;;;18.39;100.00;99175.63;4991858;28;20412;-62
2022/09/14 07:16:39;;;;;;;34.78;15.32;;;;;;;18.41;100.00;99179.69;4991541;28;20118;-63
2022/09/14 07:19:09;;;;;;;32.78;15.18;;;;;;;18.47;100.00;99175.16;4991663;28;20062;-64
2022/09/14 07:21:35;;;;;;;29.95;14.93;;;;;;;18.53;100.00;99167.97;4991338;28;20042;-64
2022/09/14 07:24:01;;;;;;;34.38;14.55;;;;;;;18.65;100.00;99182.94;4991814;28;20061;-65
2022/09/14 07:26:29;;;;;;;31.40;14.60;;;;;;;18.70;100.00;99174.94;4990397;28;20050;-63
2022/09/14 07:29:00;;;;;;;36.45;15.55;;;;;;;18.80;100.00;99184.22;4991673;28;20482;-64
2022/09/14 07:31:32;;;;;;;31.60;14.73;;;;;;;18.94;100.00;99182.75;4991337;28;20039;-64
2022/09/14 07:34:03;;;;;;;35.22;15.63;;;;;;;19.03;100.00;99181.22;4991746;28;20038;-64
2022/09/14 07:36:30;;;;;;;31.02;14.45;;;;;;;19.18;100.00;99181.41;4995012;28;20629;-65
2022/09/14 07:38:56;;;;;;;37.20;15.98;;;;;;;19.30;100.00;99186.66;4995470;28;20405;-65
2022/09/14 07:41:23;;;;;;;34.40;15.02;;;;;;;19.37;100.00;99198.06;4995085;28;20141;-64
2022/09/14 07:43:55;;;;;;;31.92;15.18;;;;;;;19.46;100.00;99203.78;4995338;28;20046;-65
2022/09/14 07:46:22;;;;;;;31.30;14.68;;;;;;;19.48;100.00;99217.84;4995453;28;20031;-65
2022/09/14 07:48:52;;;;;;;31.73;13.97;;;;;;;19.55;100.00;99207.66;4995366;28;20030;-64
2022/09/14 07:51:18;;;;;;;25.17;13.10;;;;;;;19.58;100.00;99207.19;4994958;28;20309;-64
2022/09/14 07:53:44;;;;;;;27.17;12.95;;;;;;;19.60;100.00;99210.44;4995228;28;20458;-64
2022/09/14 07:56:12;;;;;;;30.67;13.82;;;;;;;19.62;100.00;99210.97;4995006;28;20512;-64
2022/09/14 07:58:38;;;;;;;;;;;;;;;19.70;100.00;99218.63;4995516;28;20077;-63
2022/09/14 08:01:10;;;;;;;31.63;13.45;;;;;;;19.81;100.00;99224.09;4994831;28;19913;-65
2022/09/14 08:03:38;;;;;;;27.02;13.50;;;;;;;19.88;100.00;99219.28;4995270;28;20078;-64
2022/09/14 08:06:09;;;;;;;23.52;12.48;;;;;;;20.00;100.00;99225.31;4995101;28;20045;-64
2022/09/14 08:08:37;;;;;;;29.58;12.95;;;;;;;20.14;100.00;99233.81;4995055;28;20042;-64
2022/09/14 08:11:22;;;;;;;24.33;12.60;;;;;;;20.35;100.00;99238.28;4995036;28;20168;-64
2022/09/14 08:13:53;;;;;;;25.27;11.73;;;;;;;20.52;100.00;99235.41;4995082;28;20046;-64
2022/09/14 08:16:20;;;;;;;31.77;12.65;;;;;;;20.63;100.00;99234.41;4994890;28;20045;-64
2022/09/14 08:18:47;;;;;;;24.27;10.63;;;;;;;20.73;100.00;99239.84;4994963;28;20050;-65
2022/09/14 08:21:16;;;;;;;22.27;10.80;;;;;;;20.80;100.00;99240.44;4994373;28;20050;-64
2022/09/14 08:23:43;;;;;;;20.38;10.20;;;;;;;20.85;100.00;99243.13;4994955;28;20049;-63
2022/09/14 08:26:17;;;;;;;20.58;9.82;;;;;;;20.94;100.00;99246.16;4994791;28;20042;-64
2022/09/14 08:28:42;;;;;;;23.70;11.07;;;;;;;21.10;100.00;99250.53;4994841;28;20378;-64
2022/09/14 08:31:20;;;;;;;18.95;9.93;;;;;;;21.28;100.00;99254.69;4995667;28;20057;-63
2022/09/14 08:33:51;;;;;;;25.13;9.68;;;;;;;21.36;100.00;99265.00;4994398;28;20050;-65
2022/09/14 08:36:18;;;;;;;15.05;8.43;;;;;;;21.39;100.00;99250.94;4994888;28;20041;-64
2022/09/14 08:38:44;;;;;;;;;;;;;;;21.52;100.00;99241.47;4995385;28;20042;-63
2022/09/14 08:41:28;;;;;;;16.00;8.65;;;;;;;21.56;100.00;99233.59;4994234;28;20004;-65
2022/09/14 08:43:58;;;;;;;13.60;6.72;;;;;;;21.66;100.00;99236.34;4993550;28;20437;-64
2022/09/14 08:46:34;;;;;;;13.15;7.32;;;;;;;21.83;100.00;99252.31;4993644;28;20553;-64
2022/09/14 08:49:02;;;;;;;11.50;5.80;;;;;;;21.99;100.00;99266.69;4994591;28;20053;-64
2022/09/14 08:51:28;;;;;;;15.95;7.05;;;;;;;22.17;100.00;99268.91;4994003;28;20078;-62
2022/09/14 08:53:55;;;;;;;12.40;6.30;;;;;;;22.31;100.00;99261.81;4994266;28;20069;-63
2022/09/14 08:56:28;;;;;;;11.63;6.22;;;;;;;22.40;100.00;99246.59;4994025;28;20069;-64
2022/09/14 08:59:01;;;;;;;9.82;6.47;;;;;;;22.56;100.00;99238.41;4993994;28;20397;-63
2022/09/14 09:01:45;;;;;;;8.73;5.43;;;;;;;22.57;100.00;99240.06;4993950;28;20049;-65
2022/09/14 09:04:36;;;;;;;10.18;5.55;;;;;;;22.53;100.00;99238.97;4994088;28;20053;-65
2022/09/14 09:07:13;;;;;;;11.18;6.15;;;;;;;22.40;100.00;99240.38;4993851;28;20081;-65
2022/09/14 09:09:38;;;;;;;9.25;4.97;;;;;;;22.31;100.00;99234.69;4994208;28;20046;-63
2022/09/14 09:12:04;;;;;;;11.88;5.60;;;;;;;22.26;100.00;99239.31;4993416;28;20085;-61
2022/09/14 09:14:40;;;;;;;6.68;5.10;;;;;;;22.25;100.00;99246.63;4993875;28;20495;-65
2022/09/14 09:17:34;;;;;;;7.65;5.18;;;;;;;22.24;100.00;99253.16;4993640;28;20049;-62
2022/09/14 09:20:32;;;;;;;9.57;5.72;;;;;;;22.24;100.00;99241.50;4992096;28;20065;-66
2022/09/14 09:23:12;;;;;;;7.25;4.72;;;;;;;22.42;100.00;99230.84;4993828;28;20053;-65
2022/09/14 09:25:45;;;;;;;8.15;4.90;;;;;;;22.66;100.00;99224.81;4993673;28;20054;-65
2022/09/14 09:28:13;;;;;;;8.15;4.88;;;;;;;22.98;100.00;99219.81;4993772;28;20065;-64
2022/09/14 09:30:40;;;;;;;;;;;;;;;23.40;100.00;99213.03;4993745;28;20054;-64
2022/09/14 09:33:06;;;;;;;;;;;;;;;23.68;100.00;99214.25;4992461;28;20016;-64
2022/09/14 09:35:50;;;;;;;7.20;4.90;;;;;;;24.05;100.00;99210.91;4992016;28;19914;-65
2022/09/14 09:38:24;;;;;;;7.20;4.65;;;;;;;24.40;100.00;99221.75;4991847;28;20053;-64
2022/09/14 09:41:00;;;;;;;5.05;3.72;;;;;;;24.58;95.91;99208.22;4992970;28;20457;-65
2022/09/14 09:43:26;;;;;;;7.50;3.50;;;;;;;24.75;92.77;99201.47;4991984;28;20042;-64
2022/09/14 09:46:03;;;;;;;5.97;3.50;;;;;;;25.01;89.93;99210.13;4993043;28;20030;-65
2022/09/14 09:48:37;;;;;;;;;;;;;;;25.21;88.12;99196.25;4993539;28;20375;-64
2022/09/14 09:51:06;;;;;;;10.68;3.85;;;;;;;25.36;85.76;99195.19;4992801;28;20336;-64
2022/09/14 09:53:35;;;;;;;5.28;3.42;;;;;;;25.67;83.63;99188.16;4992984;28;20038;-63
2022/09/14 09:56:01;;;;;;;7.32;3.33;;;;;;;25.87;83.82;99181.56;4992971;28;20038;-64
2022/09/14 09:58:27;;;;;;;4.57;3.00;;;;;;;26.25;82.81;99174.06;4992568;28;20042;-65
2022/09/14 10:01:26;;;;;;;4.82;2.65;;;;;;;26.61;79.57;99167.94;4992499;28;20080;-65
2022/09/14 10:04:04;;;;;;;6.68;2.78;;;;;;;26.99;77.49;99168.44;4990118;28;20058;-65
2022/09/14 10:06:30;;;;;;;4.45;2.97;;;;;;;27.21;77.08;99162.25;4991453;28;20042;-65
2022/09/14 10:08:57;;;;;;;4.28;2.72;;;;;;;27.58;74.49;99157.53;4992760;28;20120;-65
2022/09/14 10:11:35;;;;;;;3.67;2.70;;;;;;;27.52;75.35;99161.53;4992382;28;20049;-64
2022/09/14 10:14:01;;;;;;;4.32;2.88;;;;;;;27.55;73.49;99148.03;4992567;28;20041;-64
2022/09/14 10:16:33;;;;;;;2.73;2.33;;;;;;;27.64;72.51;99150.00;4992360;28;20038;-64
2022/09/14 10:19:00;;;;;;;3.85;2.70;;;;;;;27.51;77.92;99146.22;4992372;28;20034;-64
2022/09/14 10:21:25;;;;;;;;;;;;;;;27.80;73.10;99134.84;4992817;28;20405;-64
2022/09/14 10:24:08;;;;;;;2.80;2.13;;;;;;;28.07;70.63;99125.63;4992467;28;19918;-62
2022/09/14 10:26:35;;;;;;;4.38;2.78;;;;;;;28.28;70.96;99115.72;4992668;28;20452;-64
2022/09/14 10:29:22;;;;;;;3.47;2.40;;;;;;;28.13;69.13;99105.22;4992770;28;20177;-65
2022/09/14 10:31:49;;;;;;;3.28;2.40;;;;;;;28.42;67.80;99101.13;4992054;28;20034;-65
2022/09/14 10:34:18;;;;;;;3.15;2.22;;;;;;;28.49;69.04;99085.84;4992228;28;20102;-65
2022/09/14 10:36:51;;;;;;;5.13;2.35;;;;;;;28.60;67.54;99084.41;4992156;28;20049;-65
2022/09/14 10:39:28;;;;;;;3.33;2.45;;;;;;;28.89;68.39;99081.06;4992240;28;20394;-64
2022/09/14 10:42:16;;;;;;;2.80;2.28;;;;;;;28.84;66.44;99073.00;4991955;28;20038;-65
2022/09/14 10:44:50;;;;;;;5.70;2.65;;;;;;;28.57;69.90;99060.41;4992210;28;20042;-64
2022/09/14 10:47:37;;;;;;;2.35;1.90;;;;;;;28.62;68.44;99056.69;4992065;28;20030;-64
2022/09/14 10:50:05;;;;;;;4.18;2.17;;;;;;;28.61;67.06;99057.81;4992123;28;20039;-64
2022/09/14 10:53:01;;;;;;;2.63;2.05;;;;;;;29.41;64.98;99059.09;4991866;28;20524;-63
2022/09/14 10:55:42;;;;;;;3.17;2.10;;;;;;;29.92;65.00;99067.50;4991857;28;20035;-64
2022/09/14 10:58:29;;;;;;;2.50;2.25;;;;;;;30.17;59.92;99052.06;4992056;28;20038;-64
2022/09/14 11:01:31;;;;;;;3.30;1.88;;;;;;;30.49;58.31;99050.56;4991929;28;20108;-65
2022/09/14 11:04:05;;;;;;;4.43;1.88;;;;;;;31.03;57.53;99051.44;4991898;28;20042;-64
2022/09/14 11:06:56;;;;;;;4.30;2.47;;;;;;;30.35;56.19;99048.06;4991743;28;20128;-64
2022/09/14 11:09:36;;;;;;;2.03;1.60;;;;;;;29.83;56.69;99053.81;4990899;28;20039;-64
2022/09/14 11:12:19;;;;;;;3.25;1.95;;;;;;;29.16;57.84;99057.22;4994166;28;20501;-64
2022/09/14 11:14:59;;;;;;;2.63;2.00;;;;;;;29.07;61.47;99051.72;4995920;28;20034;-64
2022/09/14 11:18:02;;;;;;;2.72;1.80;;;;;;;29.14;63.25;99051.22;4995642;28;20042;-63
2022/09/14 11:20:59;;;;;;;3.22;2.00;;;;;;;28.90;63.60;99043.50;4989843;28;20042;-64
2022/09/14 11:23:45;;;;;;;2.92;2.13;;;;;;;28.75;63.05;99042.03;4986058;28;20056;-64
2022/09/14 11:26:18;;;;;;;2.47;2.00;;;;;;;28.80;59.89;99044.63;4986503;28;20034;-64
2022/09/14 11:28:50;;;;;;;2.80;1.95;;;;;;;28.63;57.99;99036.41;4985639;28;20035;-63
2022/09/14 11:31:30;;;;;;;2.83;1.60;;;;;;;28.43;59.82;99037.03;4986373;28;20110;-63
2022/09/14 11:34:12;;;;;;;3.40;1.90;;;;;;;28.04;61.08;99019.56;4992301;28;20038;-63
2022/09/14 11:36:46;;;;;;;2.35;1.63;;;;;;;27.60;64.04;99043.16;4995470;28;20074;-63
2022/09/14 11:39:22;;;;;;;5.10;1.60;;;;;;;27.34;63.72;99031.28;4995372;28;20045;-63
2022/09/14 11:42:27;;;;;;;1.80;1.70;;;;;;;27.01;65.11;99021.41;4995216;28;20108;-64
2022/09/14 11:45:00;;;;;;;4.53;1.57;;;;;;;26.96;66.05;99018.81;4994925;28;20050;-64
2022/09/14 11:47:31;;;;;;;3.17;1.70;;;;;;;26.72;67.36;99027.28;4995202;28;20265;-64
2022/09/14 11:50:14;;;;;;;2.33;1.48;;;;;;;26.62;66.51;99026.75;4995618;28;20124;-63
2022/09/14 11:52:40;;;;;;;2.67;1.80;;;;;;;26.45;66.96;99021.91;4995177;28;20117;-64
2022/09/14 11:55:14;;;;;;;2.85;2.03;;;;;;;26.33;67.12;99024.34;4993928;28;20054;-64
2022/09/14 11:57:44;;;;;;;3.20;1.70;;;;;;;26.09;67.50;99033.59;4993826;28;20034;-64
2022/09/14 12:00:24;;;;;;;2.97;1.80;;;;;;;25.99;68.97;99050.16;4994920;28;20409;-64
2022/09/14 12:03:13;;;;;;;2.25;2.03;;;;;;;25.89;69.89;99066.72;4995293;28;20038;-64
2022/09/14 12:05:42;;;;;;;3.25;1.92;;;;;;;25.73;70.75;99068.94;4993881;28;20473;-64
2022/09/14 12:08:22;;;;;;;1.48;1.30;;;;;;;25.56;71.49;99064.03;4995062;28;20617;-64
2022/09/14 12:10:59;;;;;;;2.05;1.63;;;;;;;25.39;71.08;99067.31;4977329;28;20088;-64
2022/09/14 12:13:25;;;;;;;1.85;1.65;;;;;;;25.35;71.25;99073.66;4994940;28;20042;-64
2022/09/14 12:16:00;;;;;;;2.47;1.63;;;;;;;25.25;72.25;99080.13;4977101;28;20129;-63
2022/09/14 12:18:26;;;;;;;2.08;1.60;;;;;;;25.15;73.48;99078.34;4993448;28;20046;-63
2022/09/14 12:21:00;;;;;;;5.40;1.63;;;;;;;25.07;74.92;99095.38;4993979;28;20041;-64
2022/09/14 12:23:28;;;;;;;3.08;1.88;;;;;;;24.94;77.10;99101.53;4994226;28;20038;-63
2022/09/14 12:25:56;;;;;;;2.45;2.00;;;;;;;24.72;82.48;99120.38;4994453;28;20070;-62
2022/09/14 12:28:47;;;;;;;2.88;2.10;;;;;;;24.04;86.56;99154.91;4994647;28;20449;-61
2022/09/14 12:31:31;;;;;;;3.75;2.28;;;;;;;23.53;92.90;99171.63;4994186;28;20042;-62
2022/09/14 12:34:13;;;;;;;1.55;1.10;;;;;;;21.72;100.00;99194.59;4994547;28;20113;-62
2022/09/14 12:36:39;;;;;;;3.53;1.25;;;;;;;20.70;100.00;99148.38;4994830;28;20041;-62
2022/09/14 12:39:19;;;;;;;4.40;1.00;;;;;;;19.84;100.00;99158.75;4993186;28;20034;-60
2022/09/14 12:41:45;;;;;;;1.13;0.57;;;;;;;19.35;100.00;99205.56;4994094;28;20120;-61
2022/09/14 12:44:35;;;;;;;2.10;0.80;;;;;;;18.83;100.00;99243.06;4994288;28;20133;-60
2022/09/14 12:47:27;;;;;;;2.10;0.80;;;;;;;18.64;100.00;99239.81;4994137;28;20042;-60
2022/09/14 12:49:57;;;;;;;1.30;0.70;;;;;;;18.43;100.00;99228.75;4994043;28;20038;-62
2022/09/14 12:52:33;;;;;;;1.25;0.70;;;;;;;18.46;100.00;99251.75;4994183;28;20437;-63
2022/09/14 12:55:32;;;;;;;0.82;0.50;;;;;;;18.35;100.00;99255.34;4994176;28;20093;-60
2022/09/14 12:58:18;;;;;;;0.77;0.63;;;;;;;18.27;100.00;99234.22;4992769;28;20030;-61
2022/09/14 13:01:00;;;;;;;1.85;0.77;;;;;;;18.29;100.00;99261.72;4976767;28;20097;-63
2022/09/14 13:03:44;;;;;;;2.92;0.80;;;;;;;18.23;100.00;99230.38;4974558;28;20038;-61
2022/09/14 13:06:12;;;;;;;1.77;0.80;;;;;;;18.21;100.00;99224.41;4973213;28;20059;-61
2022/09/14 13:08:44;;;;;;;0.65;0.50;;;;;;;18.25;100.00;99209.38;4974306;28;20043;-61
2022/09/14 13:11:09;;;;;;;4.68;1.80;;;;;;;18.27;100.00;99209.94;4973959;28;20053;-63
2022/09/14 13:13:35;;;;;;;2.65;1.10;;;;;;;18.29;100.00;99210.50;4974207;28;20042;-61
2022/09/14 13:16:03;;;;;;;4.80;1.48;;;;;;;18.40;100.00;99214.97;4973784;28;20521;-64
2022/09/14 13:18:35;;;;;;;2.47;1.10;;;;;;;18.43;100.00;99196.41;4974457;28;20046;-65
2022/09/14 13:21:15;;;;;;;2.25;1.30;;;;;;;18.48;100.00;99192.97;4973793;28;20043;-64
2022/09/14 13:23:41;;;;;;;4.35;1.50;;;;;;;18.57;100.00;99188.75;4974059;28;20038;-62
2022/09/14 13:26:10;;;;;;;1.88;1.20;;;;;;;18.56;100.00;99187.13;4973975;28;20041;-63
2022/09/14 13:28:36;;;;;;;2.88;1.48;;;;;;;18.64;100.00;99186.69;4973727;28;20027;-64
2022/09/14 13:31:02;;;;;;;3.28;1.80;;;;;;;18.74;100.00;99194.13;4978390;28;20042;-64
2022/09/14 13:33:28;;;;;;;4.63;1.83;;;;;;;18.81;100.00;99200.16;4992586;28;20045;-65
2022/09/14 13:35:58;;;;;;;4.68;1.70;;;;;;;18.87;100.00;99207.25;4993146;28;20042;-63
2022/09/14 13:38:26;;;;;;;2.83;1.65;;;;;;;18.89;100.00;99204.28;4993482;28;20424;-62
2022/09/14 13:40:54;;;;;;;3.90;2.20;;;;;;;18.94;100.00;99207.03;4992839;28;20038;-64
2022/09/14 13:43:21;;;;;;;3.20;1.95;;;;;;;18.98;100.00;99197.38;4993001;28;20038;-63
2022/09/14 13:45:49;;;;;;;4.22;1.83;;;;;;;18.97;100.00;99195.72;4991643;28;20030;-62
2022/09/14 13:48:15;;;;;;;;;;;;;;;18.97;100.00;99207.38;4988731;28;20210;-61
2022/09/14 13:50:48;;;;;;;3.33;2.33;;;;;;;18.98;100.00;99213.56;4963556;28;19929;-61
2022/09/14 13:53:47;;;;;;;6.25;2.13;;;;;;;19.00;100.00;99216.00;4973542;28;20027;-63
2022/09/14 13:56:32;;;;;;;3.72;2.03;;;;;;;19.03;100.00;99208.22;4978628;28;20039;-63
2022/09/14 13:59:16;;;;;;;4.57;2.28;;;;;;;19.02;100.00;99206.59;4981385;28;20042;-64
2022/09/14 14:02:02;;;;;;;5.22;2.20;;;;;;;19.00;100.00;99205.22;4980508;28;20042;-64
2022/09/14 14:04:32;;;;;;;5.70;2.85;;;;;;;18.99;100.00;99193.63;4981222;28;20030;-63
2022/09/14 14:07:20;;;;;;;4.90;2.58;;;;;;;18.96;100.00;99196.81;4980969;28;20034;-64
2022/09/14 14:09:50;;;;;;;4.25;1.88;;;;;;;18.93;100.00;99197.31;4982028;28;20026;-64
2022/09/14 14:12:25;;;;;;;5.25;2.00;;;;;;;18.93;100.00;99198.13;4979898;28;20042;-64
2022/09/14 14:14:53;;;;;;;8.15;2.90;;;;;;;18.94;100.00;99207.84;4973033;28;20097;-63
2022/09/14 14:17:22;;;;;;;4.85;1.77;;;;;;;18.94;100.00;99207.84;4972933;28;20031;-64
2022/09/14 14:19:49;;;;;;;3.15;1.75;;;;;;;18.90;100.00;99190.53;4972875;28;20125;-64
2022/09/14 14:22:15;;;;;;;;;;;;;;;18.90;100.00;99185.13;4973353;28;20474;-63
2022/09/14 14:24:42;;;;;;;9.23;2.15;;;;;;;18.90;100.00;99168.13;4972980;28;19918;-63
2022/09/14 14:27:28;;;;;;;4.80;1.98;;;;;;;18.90;100.00;99168.94;4972837;28;20125;-62
2022/09/14 14:29:55;;;;;;;4.43;1.98;;;;;;;18.88;100.00;99159.50;4972683;28;20042;-64
2022/09/14 14:32:21;;;;;;;4.63;2.20;;;;;;;18.90;100.00;99162.75;4972648;28;20067;-64
2022/09/14 14:34:46;;;;;;;2.97;1.80;;;;;;;18.91;100.00;99161.69;4972794;28;20431;-63
2022/09/14 14:37:11;;;;;;;6.90;2.85;;;;;;;18.95;100.00;99160.91;4972739;28;20039;-63
2022/09/14 14:39:37;;;;;;;6.40;3.08;;;;;;;19.01;100.00;99156.38;4972664;28;20076;-63
2022/09/14 14:42:03;;;;;;;6.18;2.25;;;;;;;19.07;100.00;99158.06;4972305;28;20410;-63
2022/09/14 14:44:29;;;;;;;10.80;3.10;;;;;;;19.04;100.00;99128.06;4972563;28;20073;-63
2022/09/14 14:46:55;;;;;;;9.80;3.53;;;;;;;19.17;100.00;99124.94;4972549;28;20095;-63
2022/09/14 14:49:22;;;;;;;8.70;2.85;;;;;;;19.21;100.00;99105.28;4972597;28;20069;-63
2022/09/14 14:51:48;;;;;;;11.10;2.88;;;;;;;19.25;100.00;99065.94;4972268;28;20039;-64
2022/09/14 14:54:16;;;;;;;5.55;2.63;;;;;;;19.25;100.00;99059.72;4972521;28;20478;-64
2022/09/14 14:56:45;;;;;;;5.85;2.05;;;;;;;19.27;100.00;99049.47;4971967;28;20047;-63
2022/09/14 14:59:19;;;;;;;5.05;2.47;;;;;;;19.28;100.00;99034.06;4954850;28;20517;-64
2022/09/14 15:01:46;;;;;;;3.13;1.80;;;;;;;19.23;100.00;99024.06;4972099;28;20077;-64
2022/09/14 15:04:11;;;;;;;3.92;2.30;;;;;;;19.21;100.00;99015.41;4972328;28;20034;-65
2022/09/14 15:06:37;;;;;;;6.38;2.47;;;;;;;19.22;100.00;99055.63;4972609;28;20038;-64
2022/09/14 15:09:08;;;;;;;3.28;1.80;;;;;;;19.18;100.00;99035.66;4972358;28;20043;-64
2022/09/14 15:11:37;;;;;;;2.78;1.55;;;;;;;19.19;100.00;99031.88;4972042;28;20066;-64
2022/09/14 15:14:03;;;;;;;9.48;1.83;;;;;;;19.17;100.00;99041.28;4972281;28;20473;-64
2022/09/14 15:16:29;;;;;;;4.97;2.38;;;;;;;19.21;100.00;99037.00;4970811;28;20134;-65
2022/09/14 15:18:54;;;;;;;4.50;2.28;;;;;;;19.29;100.00;99035.69;4972362;28;20552;-63
2022/09/14 15:21:20;;;;;;;4.97;1.50;;;;;;;19.39;100.00;99033.09;4971947;28;20046;-64
2022/09/14 15:23:47;;;;;;;5.18;1.73;;;;;;;19.54;100.00;99025.06;4972236;28;20090;-63
2022/09/14 15:26:12;;;;;;;2.78;1.50;;;;;;;19.62;100.00;99019.19;4972010;28;20525;-62
2022/09/14 15:28:38;;;;;;;4.20;1.92;;;;;;;19.66;100.00;99009.50;4972170;28;20066;-61
2022/09/14 15:31:04;;;;;;;2.17;1.17;;;;;;;19.71;100.00;99000.63;4971905;28;20067;-62
2022/09/14 15:33:30;;;;;;;6.05;1.83;;;;;;;19.87;100.00;99006.91;4972271;28;20117;-63
2022/09/14 15:35:56;;;;;;;2.70;1.73;;;;;;;19.97;100.00;98999.66;4972228;28;20501;-62
2022/09/14 15:38:21;;;;;;;2.25;1.40;;;;;;;20.12;100.00;99000.78;4972022;28;20101;-63
2022/09/14 15:40:47;;;;;;;2.45;1.30;;;;;;;20.21;100.00;99008.13;4971792;28;20462;-62
2022/09/14 15:43:12;;;;;;;4.28;1.75;;;;;;;20.30;100.00;99000.31;4972141;28;20401;-62
2022/09/14 15:45:38;;;;;;;3.55;1.27;;;;;;;20.39;100.00;98987.88;4971919;28;20046;-63
2022/09/14 15:48:03;;;;;;;3.03;2.05;;;;;;;20.42;100.00;98981.13;4971866;28;20039;-63
2022/09/14 15:50:28;;;;;;;2.10;1.35;;;;;;;20.46;100.00;98985.75;4971697;28;20038;-63
2022/09/14 15:52:54;;;;;;;9.55;2.30;;;;;;;20.51;100.00;98993.88;4971933;28;20181;-64
2022/09/14 15:55:19;;;;;;;5.32;3.03;;;;;;;20.57;100.00;98992.81;4971821;28;20118;-63